Time;durP1;ratioP1;P1;durP2;ratioP2;P2;SDS_P1;SDS_P2;PMS_P1;PMS_P2;Temp;Humidity;BMP_temperature;BMP_pressure;BME280_temperature;BME280_humidity;BME280_pressure;Samples;Min_cycle;Max_cycle;Signal;HPM_P1;HPM_P2
2023/08/03 00:00:31;;;;;;;3.15;2.85;;;;;;;18.25;100.00;92693.31;5016718;28;20101;-64
2023/08/03 00:02:56;;;;;;;3.80;2.60;;;;;;;18.28;100.00;92719.41;5018883;28;20030;-63
2023/08/03 00:05:22;;;;;;;3.03;2.70;;;;;;;18.29;100.00;92791.06;5022913;28;20032;-64
2023/08/03 00:07:48;;;;;;;2.40;2.20;;;;;;;18.30;100.00;92861.88;5015749;28;20028;-63
2023/08/03 00:10:14;;;;;;;2.97;2.65;;;;;;;18.31;100.00;93009.94;5018214;28;20018;-63
2023/08/03 00:12:40;;;;;;;2.58;2.38;;;;;;;18.23;100.00;93158.72;5017970;28;20018;-63
2023/08/03 00:15:06;;;;;;;2.88;2.50;;;;;;;18.17;100.00;93222.59;5023006;28;20028;-63
2023/08/03 00:17:32;;;;;;;5.07;2.50;;;;;;;18.21;100.00;93230.84;5022706;28;20021;-63
2023/08/03 00:19:58;;;;;;;3.50;2.72;;;;;;;18.23;100.00;93214.66;5012641;28;20022;-63
2023/08/03 00:22:23;;;;;;;3.10;2.75;;;;;;;18.23;100.00;93202.13;5015945;28;20029;-63
2023/08/03 00:24:49;;;;;;;5.05;2.63;;;;;;;18.17;100.00;93195.97;5017627;28;20026;-63
2023/08/03 00:27:14;;;;;;;3.83;2.60;;;;;;;18.12;100.00;93200.41;5014106;28;20073;-63
2023/08/03 00:29:40;;;;;;;2.67;2.45;;;;;;;18.08;100.00;93204.63;5019814;28;20025;-63
2023/08/03 00:32:06;;;;;;;2.78;2.50;;;;;;;18.02;100.00;93201.94;5018369;28;20021;-64
2023/08/03 00:34:32;;;;;;;4.85;2.83;;;;;;;17.91;100.00;93213.47;5018743;28;20017;-63
2023/08/03 00:36:57;;;;;;;3.47;2.63;;;;;;;17.86;100.00;93224.06;5015673;28;20022;-63
2023/08/03 00:39:23;;;;;;;2.75;2.55;;;;;;;17.75;100.00;93218.59;5020168;28;20183;-63
2023/08/03 00:41:50;;;;;;;5.55;2.65;;;;;;;17.68;100.00;93215.31;5019072;28;20033;-63
2023/08/03 00:44:15;;;;;;;2.78;2.53;;;;;;;17.59;100.00;93230.91;5012090;28;21359;-63
2023/08/03 00:46:41;;;;;;;2.65;2.30;;;;;;;17.47;100.00;93233.66;5042816;28;20022;-64
2023/08/03 00:49:06;;;;;;;2.88;2.60;;;;;;;17.42;100.00;93203.53;5016420;28;20029;-64
2023/08/03 00:51:32;;;;;;;3.80;2.47;;;;;;;17.54;100.00;93184.81;5019754;28;20390;-63
2023/08/03 00:53:57;;;;;;;3.45;2.30;;;;;;;17.50;100.00;93194.34;5017393;28;20021;-63
2023/08/03 00:56:23;;;;;;;3.75;3.03;;;;;;;17.49;100.00;93235.28;5019936;28;20073;-63
2023/08/03 00:58:48;;;;;;;3.17;2.67;;;;;;;17.46;100.00;93260.50;5029807;28;20030;-63
2023/08/03 01:01:13;;;;;;;3.55;2.67;;;;;;;17.45;100.00;93273.00;5017244;28;20013;-63
2023/08/03 01:03:39;;;;;;;5.65;2.55;;;;;;;17.43;100.00;93275.09;5021869;28;20080;-63
2023/08/03 01:06:04;;;;;;;5.25;2.50;;;;;;;17.42;100.00;93270.84;5021742;28;20017;-63
2023/08/03 01:08:30;;;;;;;2.45;2.25;;;;;;;17.31;100.00;93279.69;5021421;28;20096;-64
2023/08/03 01:10:55;;;;;;;4.55;2.67;;;;;;;17.21;100.00;93272.38;5020214;28;20036;-63
2023/08/03 01:13:21;;;;;;;4.28;2.53;;;;;;;17.19;100.00;93253.19;5017568;28;20405;-63
2023/08/03 01:15:47;;;;;;;2.33;2.17;;;;;;;17.17;100.00;93229.53;5024474;28;20021;-64
2023/08/03 01:18:13;;;;;;;2.80;2.60;;;;;;;17.16;100.00;93243.88;5018254;28;20075;-64
2023/08/03 01:20:40;;;;;;;3.55;2.58;;;;;;;17.15;100.00;93242.28;5019533;28;20029;-63
2023/08/03 01:23:06;;;;;;;2.50;2.30;;;;;;;17.17;100.00;93213.59;5017813;28;20030;-64
2023/08/03 01:25:33;;;;;;;5.22;3.15;;;;;;;17.11;100.00;93203.91;5017999;28;20029;-64
2023/08/03 01:27:58;;;;;;;3.03;2.70;;;;;;;17.09;100.00;93178.63;5017035;28;20049;-63
2023/08/03 01:30:24;;;;;;;3.20;2.97;;;;;;;17.10;100.00;93170.41;5022285;28;20032;-63
2023/08/03 01:32:50;;;;;;;3.92;2.40;;;;;;;17.08;100.00;93175.16;5023637;28;20626;-63
2023/08/03 01:35:16;;;;;;;2.53;2.30;;;;;;;17.06;100.00;93189.75;5022019;28;20036;-63
2023/08/03 01:37:41;;;;;;;4.43;2.30;;;;;;;17.02;100.00;93200.06;5021751;28;20140;-64
2023/08/03 01:40:08;;;;;;;3.72;2.67;;;;;;;17.04;100.00;93208.59;5020548;28;20029;-63
2023/08/03 01:42:33;;;;;;;3.95;2.70;;;;;;;17.06;100.00;93219.78;5023714;28;20505;-64
2023/08/03 01:44:59;;;;;;;3.40;2.63;;;;;;;17.05;100.00;93220.84;5016376;28;20030;-64
2023/08/03 01:47:24;;;;;;;3.67;2.17;;;;;;;16.95;100.00;93247.25;5018929;28;20470;-63
2023/08/03 01:49:49;;;;;;;2.90;2.65;;;;;;;16.89;100.00;93243.69;5024139;28;20036;-63
2023/08/03 01:52:15;;;;;;;2.50;2.20;;;;;;;16.82;100.00;93254.47;5024300;28;20037;-64
2023/08/03 01:54:40;;;;;;;3.78;2.50;;;;;;;16.77;100.00;93257.03;5020514;28;20017;-63
2023/08/03 01:57:06;;;;;;;2.67;2.38;;;;;;;16.82;100.00;93270.41;5017435;28;20030;-63
2023/08/03 01:59:31;;;;;;;4.85;2.80;;;;;;;16.82;100.00;93281.03;5021849;28;20029;-63
2023/08/03 02:01:57;;;;;;;2.85;2.50;;;;;;;16.61;100.00;93309.09;5020652;28;20030;-63
2023/08/03 02:04:22;;;;;;;3.45;2.40;;;;;;;16.61;100.00;93322.38;5016806;28;20514;-63
2023/08/03 02:06:49;;;;;;;2.40;2.20;;;;;;;16.64;100.00;93315.78;5018483;28;20034;-63
2023/08/03 02:09:15;;;;;;;2.92;2.60;;;;;;;16.58;100.00;93331.63;5014569;28;20033;-63
2023/08/03 02:11:40;;;;;;;4.25;2.30;;;;;;;16.50;100.00;93336.50;5016246;28;20022;-63
2023/08/03 02:14:06;;;;;;;3.22;2.70;;;;;;;16.33;100.00;93354.00;5024448;28;20547;-63
2023/08/03 02:16:32;;;;;;;5.43;2.67;;;;;;;16.35;100.00;93361.69;5018933;28;20367;-64
2023/08/03 02:18:57;;;;;;;2.85;2.08;;;;;;;16.34;100.00;93389.28;5015921;28;20531;-63
2023/08/03 02:21:23;;;;;;;3.50;2.53;;;;;;;16.33;100.00;93417.72;5022465;28;20014;-63
2023/08/03 02:23:48;;;;;;;4.18;2.55;;;;;;;16.37;100.00;93430.50;5019026;28;20077;-63
2023/08/03 02:26:14;;;;;;;4.32;2.35;;;;;;;16.51;100.00;93433.72;5019088;28;20034;-63
2023/08/03 02:28:40;;;;;;;4.20;2.50;;;;;;;16.55;100.00;93435.69;5020201;28;20030;-63
2023/08/03 02:31:05;;;;;;;2.70;2.33;;;;;;;16.42;100.00;93457.16;5021830;28;20032;-64
2023/08/03 02:33:30;;;;;;;2.35;2.15;;;;;;;16.43;100.00;93462.25;5022471;28;20020;-63
2023/08/03 02:35:56;;;;;;;2.53;2.33;;;;;;;16.48;100.00;93466.88;5039569;28;20380;-63
2023/08/03 02:38:21;;;;;;;2.33;2.20;;;;;;;16.45;100.00;93456.69;5019698;28;20033;-63
2023/08/03 02:40:47;;;;;;;2.95;2.65;;;;;;;16.44;100.00;93455.09;5018468;28;20489;-63
2023/08/03 02:43:12;;;;;;;3.05;2.28;;;;;;;16.30;100.00;93438.59;5019628;28;20071;-63
2023/08/03 02:45:37;;;;;;;2.60;2.40;;;;;;;16.28;100.00;93408.81;5005076;28;20047;-63
2023/08/03 02:48:03;;;;;;;4.97;2.53;;;;;;;16.26;100.00;93363.94;5019194;28;20424;-64
2023/08/03 02:50:29;;;;;;;3.65;2.50;;;;;;;16.25;100.00;93332.31;5017313;28;20394;-63
2023/08/03 02:52:54;;;;;;;3.10;2.50;;;;;;;16.20;100.00;93330.34;5019619;28;20045;-63
2023/08/03 02:55:19;;;;;;;3.15;2.50;;;;;;;16.08;100.00;93318.97;5020602;28;20021;-63
2023/08/03 02:57:45;;;;;;;2.60;2.42;;;;;;;15.99;100.00;93294.66;5019569;28;20029;-63
2023/08/03 03:00:11;;;;;;;2.42;2.30;;;;;;;16.05;100.00;93291.03;5002448;28;20541;-63
2023/08/03 03:02:36;;;;;;;4.32;2.45;;;;;;;16.13;100.00;93263.34;5019585;28;20494;-63
2023/08/03 03:05:02;;;;;;;2.50;2.30;;;;;;;16.05;100.00;93259.19;5021341;28;20402;-63
2023/08/03 03:07:31;;;;;;;2.65;2.45;;;;;;;15.97;100.00;93276.28;5016812;28;20037;-63
2023/08/03 03:09:57;;;;;;;3.30;2.80;;;;;;;15.92;100.00;93284.16;5018689;28;20371;-63
2023/08/03 03:12:22;;;;;;;6.22;2.45;;;;;;;15.89;100.00;93306.63;5049740;28;20053;-63
2023/08/03 03:14:47;;;;;;;4.68;2.00;;;;;;;15.88;100.00;93328.09;5019318;28;20502;-63
2023/08/03 03:17:13;;;;;;;2.78;2.47;;;;;;;15.87;100.00;93353.78;5017643;28;20053;-63
2023/08/03 03:19:39;;;;;;;3.25;2.20;;;;;;;15.88;100.00;93378.50;5046801;28;20017;-63
2023/08/03 03:22:05;;;;;;;2.60;2.40;;;;;;;15.83;100.00;93416.31;5021878;28;20032;-64
2023/08/03 03:24:30;;;;;;;2.25;2.15;;;;;;;15.81;100.00;93436.19;5022406;28;20054;-63
2023/08/03 03:26:55;;;;;;;5.30;2.45;;;;;;;15.67;100.00;93454.94;5021739;28;20049;-63
2023/08/03 03:29:21;;;;;;;2.67;2.47;;;;;;;15.61;100.00;93464.63;5001803;28;20095;-63
2023/08/03 03:31:46;;;;;;;8.00;2.60;;;;;;;15.61;100.00;93480.53;5019090;28;20060;-63
2023/08/03 03:34:12;;;;;;;2.92;2.55;;;;;;;15.60;100.00;93494.81;5018490;28;20061;-65
2023/08/03 03:36:38;;;;;;;2.72;2.25;;;;;;;15.52;100.00;93511.06;5019569;28;20120;-63
2023/08/03 03:39:03;;;;;;;2.97;2.60;;;;;;;15.43;100.00;93515.06;5022515;28;20044;-63
2023/08/03 03:41:29;;;;;;;3.03;2.83;;;;;;;15.36;100.00;93523.09;5017982;28;20026;-64
2023/08/03 03:43:54;;;;;;;2.80;2.60;;;;;;;15.45;100.00;93523.59;5022413;28;20398;-63
2023/08/03 03:46:19;;;;;;;4.07;2.55;;;;;;;15.40;100.00;93526.94;5019354;28;20548;-63
2023/08/03 03:48:45;;;;;;;2.65;2.45;;;;;;;15.44;100.00;93533.41;5019005;28;20052;-63
2023/08/03 03:51:10;;;;;;;7.03;2.70;;;;;;;15.43;100.00;93537.09;5020175;28;20056;-63
2023/08/03 03:53:35;;;;;;;5.10;2.47;;;;;;;15.43;100.00;93546.88;5014927;28;20037;-63
2023/08/03 03:56:02;;;;;;;4.05;2.70;;;;;;;15.42;100.00;93535.47;5045117;28;20028;-63
2023/08/03 03:58:28;;;;;;;2.42;2.30;;;;;;;15.42;100.00;93538.13;5018790;28;20665;-63
2023/08/03 04:00:53;;;;;;;2.90;2.65;;;;;;;15.46;100.00;93541.13;5021133;28;20022;-63
2023/08/03 04:03:19;;;;;;;6.32;2.70;;;;;;;15.45;100.00;93526.25;5026713;28;20025;-63
2023/08/03 04:05:44;;;;;;;2.50;2.30;;;;;;;15.37;100.00;93534.53;5014627;28;20487;-63
2023/08/03 04:08:10;;;;;;;4.45;2.78;;;;;;;15.32;100.00;93537.84;5044090;28;20022;-63
2023/08/03 04:10:35;;;;;;;4.80;3.00;;;;;;;15.32;100.00;93553.75;5021254;28;20034;-63
2023/08/03 04:13:01;;;;;;;5.40;2.88;;;;;;;15.31;100.00;93563.56;5014654;28;20535;-63
2023/08/03 04:15:26;;;;;;;4.40;2.63;;;;;;;15.31;100.00;93558.25;5019557;28;20505;-63
2023/08/03 04:17:52;;;;;;;4.57;2.83;;;;;;;15.27;100.00;93566.88;4998904;28;20025;-63
2023/08/03 04:20:17;;;;;;;3.72;2.60;;;;;;;15.26;100.00;93584.63;5015411;28;20552;-63
2023/08/03 04:22:43;;;;;;;4.95;2.85;;;;;;;15.26;100.00;93591.75;5015155;28;20022;-63
2023/08/03 04:25:09;;;;;;;7.70;2.70;;;;;;;15.22;100.00;93604.63;5045942;28;20040;-63
2023/08/03 04:27:34;;;;;;;6.38;2.70;;;;;;;15.24;100.00;93617.69;5023719;28;20080;-63
2023/08/03 04:30:00;;;;;;;4.95;2.58;;;;;;;15.24;100.00;93626.44;5026055;28;20030;-64
2023/08/03 04:32:25;;;;;;;5.60;2.97;;;;;;;15.23;100.00;93639.91;5021714;28;20029;-63
2023/08/03 04:34:51;;;;;;;9.27;2.88;;;;;;;15.22;100.00;93652.34;5024052;28;20024;-63
2023/08/03 04:37:16;;;;;;;4.80;2.53;;;;;;;15.25;100.00;93659.88;5021528;28;20045;-63
2023/08/03 04:39:41;;;;;;;12.00;2.97;;;;;;;15.24;100.00;93670.69;5021512;28;20068;-63
2023/08/03 04:42:07;;;;;;;4.70;2.67;;;;;;;15.26;100.00;93669.44;5022693;28;20061;-63
2023/08/03 04:44:33;;;;;;;6.10;2.72;;;;;;;15.31;100.00;93669.59;5019093;28;20117;-63
2023/08/03 04:46:58;;;;;;;7.60;2.70;;;;;;;15.37;100.00;93672.38;5026401;28;20018;-63
2023/08/03 04:49:25;;;;;;;6.05;2.78;;;;;;;15.38;100.00;93676.66;5018245;28;20045;-63
2023/08/03 04:51:51;;;;;;;7.88;3.08;;;;;;;15.36;100.00;93684.81;5021236;28;20041;-63
2023/08/03 04:54:16;;;;;;;7.88;2.70;;;;;;;15.42;100.00;93683.94;5027779;28;20037;-63
2023/08/03 04:56:42;;;;;;;4.70;3.03;;;;;;;15.46;100.00;93682.47;5020446;28;20030;-63
2023/08/03 04:59:07;;;;;;;7.32;2.50;;;;;;;15.50;100.00;93693.47;5021178;28;20028;-63
2023/08/03 05:01:32;;;;;;;6.32;2.90;;;;;;;15.53;100.00;93702.78;5003321;28;20025;-63
2023/08/03 05:04:00;;;;;;;8.80;3.00;;;;;;;15.53;100.00;93716.06;5022524;28;20025;-63
2023/08/03 05:06:25;;;;;;;6.82;3.00;;;;;;;15.56;100.00;93720.91;5019644;28;20025;-63
2023/08/03 05:08:51;;;;;;;8.18;3.10;;;;;;;15.60;100.00;93736.16;5021167;28;20035;-63
2023/08/03 05:11:16;;;;;;;9.88;2.88;;;;;;;15.67;100.00;93752.00;5021020;28;20443;-63
2023/08/03 05:13:42;;;;;;;9.05;2.75;;;;;;;15.70;100.00;93759.53;5022036;28;20057;-64
2023/08/03 05:16:07;;;;;;;9.93;2.58;;;;;;;15.67;100.00;93775.06;5020007;28;20040;-63
2023/08/03 05:18:33;;;;;;;8.02;3.03;;;;;;;15.70;100.00;93775.44;5019271;28;20402;-63
2023/08/03 05:20:58;;;;;;;6.10;2.20;;;;;;;15.68;100.00;93790.78;5020283;28;20026;-63
2023/08/03 05:23:23;;;;;;;5.47;2.67;;;;;;;15.67;100.00;93802.41;5017481;28;20032;-64
2023/08/03 05:25:54;;;;;;;5.70;3.13;;;;;;;15.69;100.00;93824.22;5016374;28;20025;-64
2023/08/03 05:28:20;;;;;;;6.13;2.40;;;;;;;15.73;100.00;93838.66;5019668;28;20107;-63
2023/08/03 05:30:46;;;;;;;4.97;2.40;;;;;;;15.81;100.00;93856.13;5022014;28;20034;-63
2023/08/03 05:33:11;;;;;;;5.28;2.28;;;;;;;15.81;100.00;93864.09;5025540;28;21105;-64
2023/08/03 05:35:36;;;;;;;12.52;3.50;;;;;;;15.88;100.00;93872.81;5020358;28;20018;-64
2023/08/03 05:38:02;;;;;;;7.82;2.63;;;;;;;15.92;100.00;93881.16;5020060;28;20105;-63
2023/08/03 05:40:27;;;;;;;5.75;2.30;;;;;;;15.97;100.00;93883.19;5020067;28;20030;-63
2023/08/03 05:42:53;;;;;;;6.40;2.70;;;;;;;15.99;100.00;93889.06;5021935;28;20040;-63
2023/08/03 05:45:38;;;;;;;6.75;2.80;;;;;;;15.96;100.00;93903.56;5046151;28;20494;-64
2023/08/03 05:48:12;;;;;;;9.57;2.88;;;;;;;16.08;100.00;93913.47;5021227;28;20022;-64
2023/08/03 05:50:41;;;;;;;5.75;2.20;;;;;;;16.16;100.00;93918.50;5022063;28;20371;-64
2023/08/03 05:53:09;;;;;;;5.13;2.55;;;;;;;16.09;100.00;93936.34;5017983;28;20030;-63
2023/08/03 05:55:34;;;;;;;7.47;2.65;;;;;;;15.93;100.00;93946.47;5019110;28;20493;-64
2023/08/03 05:58:00;;;;;;;6.30;2.70;;;;;;;15.93;100.00;93951.00;5021594;28;20029;-63
2023/08/03 06:00:28;;;;;;;5.93;2.40;;;;;;;15.87;100.00;93944.69;5019056;28;20622;-63
2023/08/03 06:02:57;;;;;;;6.80;2.92;;;;;;;15.88;100.00;93941.00;5023767;28;20025;-64
2023/08/03 06:05:45;;;;;;;5.85;2.63;;;;;;;15.98;100.00;93930.72;5020421;28;20034;-63
2023/08/03 06:08:19;;;;;;;4.40;2.65;;;;;;;15.99;100.00;93931.53;5025423;28;20448;-64
2023/08/03 06:10:56;;;;;;;6.15;2.50;;;;;;;15.95;100.00;93948.94;5022215;28;20029;-63
2023/08/03 06:13:27;;;;;;;6.75;2.40;;;;;;;15.97;100.00;93952.19;5016382;28;20105;-64
2023/08/03 06:15:53;;;;;;;6.95;2.78;;;;;;;15.98;100.00;93967.88;5018651;28;20022;-63
2023/08/03 06:18:19;;;;;;;5.57;2.85;;;;;;;16.07;100.00;93972.91;5022386;28;20117;-63
2023/08/03 06:20:48;;;;;;;4.47;2.40;;;;;;;16.25;100.00;93972.94;5019133;28;20041;-63
2023/08/03 06:23:22;;;;;;;6.00;2.90;;;;;;;16.41;100.00;93989.31;5032407;28;20085;-64
2023/08/03 06:25:49;;;;;;;8.88;2.72;;;;;;;16.57;100.00;94003.84;5019784;28;20100;-64
2023/08/03 06:28:17;;;;;;;5.07;2.30;;;;;;;16.74;100.00;94020.03;5021392;28;20092;-64
2023/08/03 06:30:47;;;;;;;7.97;2.78;;;;;;;16.86;100.00;94044.03;5024834;28;20077;-64
2023/08/03 06:33:17;;;;;;;7.07;2.70;;;;;;;16.90;100.00;94091.19;5020837;28;20033;-64
2023/08/03 06:35:44;;;;;;;4.30;2.30;;;;;;;16.90;100.00;94117.78;5023115;28;20522;-63
2023/08/03 06:38:14;;;;;;;5.38;2.60;;;;;;;16.96;100.00;94117.94;5020443;28;20026;-64
2023/08/03 06:40:41;;;;;;;6.03;3.33;;;;;;;17.04;100.00;94137.09;5018251;28;20380;-64
2023/08/03 06:43:08;;;;;;;10.48;2.67;;;;;;;17.03;100.00;94169.22;5022251;28;20041;-64
2023/08/03 06:45:35;;;;;;;6.55;2.55;;;;;;;16.95;100.00;94178.25;5019022;28;20042;-64
2023/08/03 06:48:02;;;;;;;6.82;2.58;;;;;;;16.95;100.00;94196.06;5017831;28;20054;-65
2023/08/03 06:50:32;;;;;;;4.80;2.22;;;;;;;16.86;100.00;94206.16;5020179;28;20034;-65
2023/08/03 06:52:58;;;;;;;6.15;2.75;;;;;;;16.72;100.00;94221.41;5017942;28;20030;-64
2023/08/03 06:55:24;;;;;;;4.95;2.90;;;;;;;16.70;100.00;94207.50;5019674;28;20018;-64
2023/08/03 06:57:49;;;;;;;12.32;3.10;;;;;;;16.96;100.00;94187.84;5004987;28;20391;-63
2023/08/03 07:00:15;;;;;;;5.85;2.28;;;;;;;17.28;100.00;94171.84;5040231;28;20033;-64
2023/08/03 07:02:50;;;;;;;4.30;2.60;;;;;;;17.55;100.00;94184.84;5016489;28;20033;-64
2023/08/03 07:05:16;;;;;;;;;;;;;;;17.91;100.00;94198.31;5016787;28;20083;-63
2023/08/03 07:07:41;;;;;;;5.72;1.95;;;;;;;18.29;100.00;94221.22;5020593;28;19914;-64
2023/08/03 07:10:07;;;;;;;5.20;2.53;;;;;;;18.74;100.00;94235.13;5017427;28;20101;-64
2023/08/03 07:12:36;;;;;;;3.13;2.50;;;;;;;19.02;100.00;94257.69;5016719;28;20034;-64
2023/08/03 07:15:03;;;;;;;6.43;2.35;;;;;;;18.86;100.00;94278.59;5022660;28;20025;-64
2023/08/03 07:17:28;;;;;;;4.43;2.53;;;;;;;18.63;100.00;94297.19;5014180;28;20167;-64
2023/08/03 07:19:54;;;;;;;3.55;2.40;;;;;;;18.40;100.00;94298.72;5019683;28;20068;-64
2023/08/03 07:22:23;;;;;;;5.50;2.25;;;;;;;18.33;100.00;94286.31;5032106;28;20029;-64
2023/08/03 07:24:49;;;;;;;4.82;2.58;;;;;;;18.54;100.00;94281.53;5017691;28;20502;-64
2023/08/03 07:27:15;;;;;;;5.50;2.88;;;;;;;18.84;100.00;94277.22;5015955;28;20061;-64
2023/08/03 07:29:41;;;;;;;3.80;2.40;;;;;;;18.88;100.00;94289.84;5014359;28;20022;-64
2023/08/03 07:32:07;;;;;;;3.08;2.20;;;;;;;18.82;100.00;94321.97;5015300;28;20087;-64
2023/08/03 07:34:32;;;;;;;4.00;2.60;;;;;;;18.85;100.00;94338.28;5018145;28;20040;-64
2023/08/03 07:36:58;;;;;;;4.65;2.45;;;;;;;18.93;100.00;94339.03;5014384;28;20022;-63
2023/08/03 07:39:24;;;;;;;4.70;2.30;;;;;;;19.47;100.00;94339.84;5016125;28;20040;-64
2023/08/03 07:41:49;;;;;;;5.25;2.63;;;;;;;20.23;100.00;94341.00;5018261;28;20033;-64
2023/08/03 07:44:16;;;;;;;5.80;2.53;;;;;;;20.78;100.00;94362.09;5012767;28;20168;-64
2023/08/03 07:46:42;;;;;;;3.00;2.60;;;;;;;21.23;100.00;94389.97;5018812;28;20030;-65
2023/08/03 07:49:07;;;;;;;5.60;3.00;;;;;;;21.71;100.00;94402.03;5012352;28;20045;-64
2023/08/03 07:51:33;;;;;;;5.88;2.38;;;;;;;21.74;100.00;94424.84;5015802;28;20014;-63
2023/08/03 07:53:58;;;;;;;5.18;2.45;;;;;;;21.93;100.00;94446.84;5038244;28;20030;-63
2023/08/03 07:56:24;;;;;;;5.38;3.47;;;;;;;22.38;100.00;94476.44;5042237;28;20029;-63
2023/08/03 07:58:51;;;;;;;4.57;2.42;;;;;;;22.70;100.00;94491.97;5016348;28;20076;-63
2023/08/03 08:01:17;;;;;;;4.00;2.08;;;;;;;22.70;100.00;94506.16;5017000;28;20056;-64
2023/08/03 08:03:43;;;;;;;4.10;1.95;;;;;;;22.66;100.00;94598.09;5021130;28;20045;-63
2023/08/03 08:06:10;;;;;;;3.95;1.88;;;;;;;22.61;100.00;94598.84;5019699;28;20033;-64
2023/08/03 08:08:37;;;;;;;5.65;1.67;;;;;;;22.97;100.00;94671.00;5016137;28;20107;-64
2023/08/03 08:11:03;;;;;;;5.85;2.42;;;;;;;23.39;100.00;94650.94;5016787;28;20021;-63
2023/08/03 08:13:28;;;;;;;3.58;1.92;;;;;;;23.60;100.00;94638.63;5018430;28;20040;-63
2023/08/03 08:15:59;;;;;;;5.00;2.10;;;;;;;23.88;100.00;94680.59;5020095;28;20029;-64
2023/08/03 08:18:24;;;;;;;2.78;1.73;;;;;;;23.91;100.00;94735.72;5017246;28;20089;-63
2023/08/03 08:21:01;;;;;;;3.97;1.70;;;;;;;23.72;100.00;94732.53;5019143;28;20605;-64
2023/08/03 08:23:27;;;;;;;3.03;1.73;;;;;;;24.04;100.00;94766.81;5019544;28;20028;-64
2023/08/03 08:25:52;;;;;;;2.15;1.30;;;;;;;23.92;100.00;94817.97;5016451;28;20030;-63
2023/08/03 08:28:18;;;;;;;3.05;1.90;;;;;;;24.00;100.00;94831.00;5014914;28;20529;-65
2023/08/03 08:30:44;;;;;;;4.78;1.70;;;;;;;24.51;100.00;94845.34;5018701;28;20030;-64
2023/08/03 08:33:10;;;;;;;3.33;1.75;;;;;;;24.51;100.00;94966.41;5015177;28;20042;-64
2023/08/03 08:35:36;;;;;;;3.25;1.70;;;;;;;24.41;100.00;94926.72;5014948;28;20025;-64
2023/08/03 08:38:04;;;;;;;5.75;1.58;;;;;;;24.77;100.00;94972.97;5014343;28;20545;-64
2023/08/03 08:40:30;;;;;;;3.08;1.48;;;;;;;24.44;100.00;94907.44;5018100;28;20033;-64
2023/08/03 08:42:56;;;;;;;3.17;1.80;;;;;;;24.61;100.00;94912.75;5017373;28;20502;-65
2023/08/03 08:45:21;;;;;;;4.18;1.83;;;;;;;24.84;100.00;95478.84;5015207;28;20025;-64
2023/08/03 08:47:47;;;;;;;4.50;1.75;;;;;;;24.64;100.00;95358.09;5018775;28;20080;-65
2023/08/03 08:50:14;;;;;;;4.30;1.90;;;;;;;24.95;100.00;95334.50;5014604;28;20518;-65
2023/08/03 08:52:44;;;;;;;3.50;2.20;;;;;;;24.88;100.00;95286.19;5019942;28;20032;-64
2023/08/03 08:55:13;;;;;;;3.63;1.90;;;;;;;25.21;100.00;95211.88;5014240;28;20057;-65
2023/08/03 08:57:39;;;;;;;2.83;1.83;;;;;;;25.78;100.00;95149.84;5042707;28;20447;-65
2023/08/03 09:00:06;;;;;;;2.95;1.70;;;;;;;25.52;100.00;95099.16;5014793;28;20033;-65
2023/08/03 09:02:32;;;;;;;3.63;2.00;;;;;;;25.72;100.00;95016.91;5013973;28;20029;-65
2023/08/03 09:05:28;;;;;;;4.20;2.05;;;;;;;25.95;100.00;94910.59;5015395;28;20022;-65
2023/08/03 09:08:05;;;;;;;3.60;1.73;;;;;;;26.14;100.00;94861.66;5015860;28;20025;-65
2023/08/03 09:10:31;;;;;;;2.75;1.63;;;;;;;26.39;100.00;94817.84;5021108;28;20503;-65
2023/08/03 09:12:58;;;;;;;2.72;1.50;;;;;;;26.53;100.00;94780.38;5022239;28;20552;-65
2023/08/03 09:15:40;;;;;;;3.03;1.83;;;;;;;26.59;100.00;94743.44;5025544;28;20649;-65
2023/08/03 09:18:06;;;;;;;3.60;1.90;;;;;;;26.73;100.00;94708.63;5023501;28;20028;-66
2023/08/03 09:20:32;;;;;;;2.47;1.58;;;;;;;26.66;100.00;94681.91;5019376;28;20739;-66
2023/08/03 09:22:58;;;;;;;2.42;1.60;;;;;;;26.56;100.00;94646.81;5026386;28;20049;-66
2023/08/03 09:25:24;;;;;;;2.30;1.65;;;;;;;26.60;100.00;94619.00;5021116;28;20038;-66
2023/08/03 09:27:55;;;;;;;2.75;1.80;;;;;;;26.39;100.00;94598.50;5047451;28;20060;-66
2023/08/03 09:30:22;;;;;;;5.47;1.75;;;;;;;26.39;100.00;94561.53;5021745;28;20038;-66
2023/08/03 09:32:48;;;;;;;2.20;1.75;;;;;;;26.76;100.00;94605.50;5021911;28;20057;-67
2023/08/03 09:35:24;;;;;;;5.63;2.00;;;;;;;26.66;100.00;94554.25;5021103;28;20104;-66
2023/08/03 09:37:51;;;;;;;2.13;1.73;;;;;;;26.49;100.00;94466.31;5021702;28;20029;-67
2023/08/03 09:40:19;;;;;;;3.35;2.15;;;;;;;26.80;100.00;94449.22;5022372;28;20104;-66
2023/08/03 09:42:48;;;;;;;3.47;2.13;;;;;;;27.09;100.00;94379.19;5020462;28;20037;-66
2023/08/03 09:45:14;;;;;;;5.53;1.90;;;;;;;26.70;100.00;94356.38;5022244;28;20034;-65
2023/08/03 09:47:40;;;;;;;4.25;1.58;;;;;;;26.39;100.00;94317.94;5020134;28;20037;-65
2023/08/03 09:50:09;;;;;;;3.20;1.92;;;;;;;26.64;100.00;94305.41;5019827;28;20022;-66
2023/08/03 09:52:49;;;;;;;2.85;1.70;;;;;;;27.23;100.00;94174.09;5042171;28;20049;-65
2023/08/03 09:55:22;;;;;;;3.15;1.65;;;;;;;26.73;100.00;93882.72;5018201;28;20030;-66
2023/08/03 09:58:00;;;;;;;2.53;1.63;;;;;;;26.95;100.00;93781.53;5015602;28;20073;-66
2023/08/03 10:00:26;;;;;;;3.15;2.00;;;;;;;27.13;100.00;93669.19;5019093;28;20033;-65
2023/08/03 10:02:57;;;;;;;1.42;1.23;;;;;;;27.05;100.00;93553.78;5019531;28;20074;-66
2023/08/03 10:05:26;;;;;;;2.88;1.95;;;;;;;26.74;100.00;93468.75;5017498;28;20038;-65
2023/08/03 10:07:59;;;;;;;2.72;1.60;;;;;;;26.87;100.00;93357.34;5018656;28;20040;-66
2023/08/03 10:10:30;;;;;;;7.80;1.70;;;;;;;26.97;100.00;93261.03;5020836;28;20021;-66
2023/08/03 10:13:01;;;;;;;2.63;1.52;;;;;;;27.35;100.00;93173.47;5017762;28;20708;-66
2023/08/03 10:15:27;;;;;;;2.10;1.67;;;;;;;27.60;100.00;92956.66;5022257;28;20109;-65
2023/08/03 10:17:54;;;;;;;3.00;1.63;;;;;;;27.66;100.00;92867.38;5014678;28;20034;-65
2023/08/03 10:20:21;;;;;;;2.03;1.55;;;;;;;27.36;100.00;92670.03;5017045;28;20030;-66
2023/08/03 10:23:09;;;;;;;2.72;1.50;;;;;;;26.75;100.00;92504.38;5015155;28;20029;-66
2023/08/03 10:25:49;;;;;;;9.32;1.70;;;;;;;26.42;100.00;92453.72;5014953;28;20030;-66
2023/08/03 10:28:15;;;;;;;2.15;1.48;;;;;;;26.38;100.00;92394.22;5014869;28;20509;-66
2023/08/03 10:31:11;;;;;;;2.55;1.55;;;;;;;26.39;100.00;92319.50;5019488;28;20137;-66
2023/08/03 10:33:51;;;;;;;3.60;1.30;;;;;;;26.52;100.00;92046.13;5039833;28;20044;-66
2023/08/03 10:36:26;;;;;;;4.90;1.58;;;;;;;27.13;100.00;92147.34;5014834;28;20525;-66
2023/08/03 10:38:51;;;;;;;;;;;;;;;27.35;100.00;92121.06;5018773;28;20029;-66
2023/08/03 10:41:23;;;;;;;1.70;1.17;;;;;;;27.42;100.00;92097.00;5018096;28;19952;-66
2023/08/03 10:44:12;;;;;;;2.85;1.38;;;;;;;27.78;100.00;92091.19;5042116;28;20845;-66
2023/08/03 10:46:48;;;;;;;2.50;1.52;;;;;;;28.07;100.00;92243.44;5018205;28;20045;-66
2023/08/03 10:49:20;;;;;;;3.20;1.60;;;;;;;27.93;100.00;92381.63;5016172;28;20034;-66
2023/08/03 10:51:45;;;;;;;1.50;1.30;;;;;;;27.81;100.00;92450.69;5018879;28;20104;-67
2023/08/03 10:54:11;;;;;;;1.98;1.30;;;;;;;27.97;100.00;92707.69;5019395;28;20722;-66
2023/08/03 10:56:37;;;;;;;2.53;1.65;;;;;;;27.79;100.00;92861.00;5019013;28;20083;-66
2023/08/03 10:59:03;;;;;;;2.53;1.42;;;;;;;27.88;100.00;93028.56;5016917;28;20030;-66
2023/08/03 11:01:29;;;;;;;1.70;1.30;;;;;;;27.94;100.00;93077.88;5018287;28;20403;-66
2023/08/03 11:03:55;;;;;;;1.30;1.20;;;;;;;28.09;100.00;93282.91;5012898;28;20025;-66
2023/08/03 11:06:21;;;;;;;1.73;1.25;;;;;;;28.05;100.00;93411.72;5021474;28;20029;-66
2023/08/03 11:08:47;;;;;;;3.22;1.45;;;;;;;27.66;100.00;93654.50;5018337;28;20033;-66
2023/08/03 11:11:21;;;;;;;2.08;1.30;;;;;;;27.22;100.00;93612.59;5015545;28;20030;-66
2023/08/03 11:13:47;;;;;;;2.67;1.40;;;;;;;27.63;100.00;93682.13;5022020;28;20041;-66
2023/08/03 11:16:16;;;;;;;2.65;1.35;;;;;;;27.49;100.00;93776.66;5017061;28;20030;-66
2023/08/03 11:18:48;;;;;;;1.92;1.30;;;;;;;27.03;100.00;93884.28;5021808;28;20188;-66
2023/08/03 11:21:13;;;;;;;3.13;1.17;;;;;;;27.25;100.00;93704.66;5010878;28;20018;-66
2023/08/03 11:23:39;;;;;;;2.15;1.40;;;;;;;27.66;100.00;93827.47;5016650;28;20029;-66
2023/08/03 11:26:08;;;;;;;2.05;1.30;;;;;;;27.97;100.00;93927.00;5020864;28;20064;-67